• Join FlightAware (Why Join?)
  • Login
  • US Flag 
08:42AM EDT


 

Airport Tracker/Info


-or-


 

Live Flight TrackerFlight Track Log ✈ SWA378 ✈ 08-May-2013 ✈ KATL - KORF

Flight Track Log - Related Links

Times and Time Zones

All times are in EDT time to prevent confusion due to time zone crossing. See the SWA378 flight status page for this flight to view local times or setup timezone preferences in your user account.

Time Position Orientation Groundspeed Altitude Reporting Facility
EDT Latitude Longitude Course Direction KTS MPH feet Rate Location/Type
06:24PM 33.6333 -84.4667 239° Southwest 166 191 2,700  Level Atlanta TRACON
06:25PM 33.6000 -84.5333 239° Southwest 222 255 4,600 2,280 Climbing Atlanta TRACON
06:26PM 33.5500 -84.5833 220° Southwest 290 334 7,500 2,820 Climbing Atlanta TRACON
06:28PM 33.4575 -84.4347 127° Southeast 308 354 14,000 2,940 Climbing Atlanta Center
06:29PM 33.4578 -84.3103 90° East 348 400 17,100 3,000 Climbing Atlanta Center
06:30PM 33.4936 -84.1833 71° East 367 422 20,100 2,700 Climbing Atlanta Center
06:31PM 33.5439 -84.0661 63° Northeast 373 429 22,600 1,440 Climbing Atlanta Center
06:32PM 33.5939 -83.9442 64° Northeast 388 447 23,000 240 Climbing Atlanta Center
06:33PM 33.6250 -83.8167 74° East 400 460 23,100 1,200 Climbing Atlanta Center
06:34PM 33.6517 -83.6844 76° East 392 451 25,400 2,160 Climbing Atlanta Center
06:35PM 33.6953 -83.5544 68° East 404 465 27,500 1,800 Climbing Atlanta Center
06:36PM 33.7467 -83.4242 65° Northeast 419 482 29,100 1,740 Climbing Atlanta Center
06:37PM 33.8003 -83.2964 63° Northeast 426 490 31,000 1,860 Climbing Atlanta Center
06:38PM 33.8536 -83.1633 64° Northeast 432 497 32,900 960 Climbing Atlanta Center
06:39PM 33.9092 -83.0275 64° Northeast 437 503 33,000  Climbing Atlanta Center
06:40PM 33.9622 -82.8967 64° Northeast 437 503 33,000  Level Atlanta Center
06:41PM 34.0131 -82.7633 65° Northeast 437 503 33,000 480 Level Atlanta Center
06:42PM 34.0658 -82.6294 65° Northeast 437 503 34,000 780 Climbing Atlanta Center
06:43PM 34.1125 -82.5083 65° Northeast 437 503 34,600 1,020 Climbing Atlanta Center
06:44PM 34.1669 -82.3717 64° Northeast 442 509 36,100 1,260 Climbing Atlanta Center
06:45PM 34.2192 -82.2350 65° Northeast 442 509 37,200 900 Climbing Atlanta Center
06:46PM 34.2797 -82.0956 62° Northeast 447 514 37,900 780 Climbing Atlanta Center
06:47PM 34.3464 -81.9656 58° Northeast 452 520 38,800 540 Climbing Atlanta Center
06:48PM 34.4150 -81.8281 59° Northeast 463 533 39,000 60 Climbing Atlanta Center
06:49PM 34.4817 -81.6978 58° Northeast 463 533 39,000  Level Atlanta Center
06:50PM 34.5456 -81.5622 60° Northeast 458 527 39,000  Level Atlanta Center
06:51PM 34.6119 -81.4317 58° Northeast 458 527 39,000  Level Atlanta Center
06:52PM 34.6839 -81.2931 58° Northeast 452 520 39,000  Level Atlanta Center
06:53PM 34.7475 -81.1544 61° Northeast 457 526 39,000  Level Atlanta Center
06:54PM 34.8133 -81.0231 59° Northeast 452 520 39,000  Level Atlanta Center
06:55PM 34.8767 -80.8892 60° Northeast 452 520 39,000  Level Atlanta Center
06:56PM 34.9442 -80.7547 58° Northeast 457 526 39,000  Level Atlanta Center
06:57PM 35.0092 -80.6206 59° Northeast 452 520 39,000  Level Atlanta Center
06:59PM 35.1325 -80.3564 60° Northeast 464 534 39,000  Level Washington Center
07:00PM 35.2006 -80.2206 58° Northeast 456 525 39,000 -480 Level Washington Center
07:01PM 35.2644 -80.0794 61° Northeast 461 531 38,100 -960 Descending Washington Center
07:02PM 35.3319 -79.9456 58° Northeast 463 533 37,100 -600 Descending Washington Center
07:03PM 35.3789 -79.8031 68° East 452 520 37,000 -420 Descending Washington Center
07:04PM 35.4214 -79.6575 70° East 452 520 36,300 -1,320 Descending Washington Center
07:05PM 35.4661 -79.5092 70° East 452 520 34,400 -1,440 Descending Washington Center
07:06PM 35.5056 -79.3811 69° East 452 520 33,500 -960 Descending Washington Center
07:07PM 35.5478 -79.2350 70° East 452 520 32,500 -1,080 Descending Washington Center
07:08PM 35.5919 -79.0811 71° East 441 507 31,400 -1,080 Descending Washington Center
07:09PM 35.6336 -78.9372 70° East 441 507 30,400 -1,020 Descending Washington Center
07:10PM 35.6731 -78.7958 71° East 441 507 29,400 -960 Descending Washington Center
07:11PM 35.7097 -78.6694 70° East 441 507 28,500 -900 Descending Washington Center
07:12PM 35.7508 -78.5275 70° East 441 507 27,600 -1,020 Descending Washington Center
07:13PM 35.7919 -78.3781 71° East 441 507 26,600 -1,020 Descending Washington Center
07:14PM 35.8306 -78.2358 71° East 441 507 25,600 -1,020 Descending Washington Center
07:15PM 35.8714 -78.0886 71° East 441 507 24,600 -1,020 Descending Washington Center
07:16PM 35.9117 -77.9464 71° East 441 507 23,600 -1,020 Descending Washington Center
07:17PM 35.9519 -77.8064 70° East 441 507 22,600 -1,020 Descending Washington Center
07:18PM 35.9942 -77.6689 69° East 436 502 21,600 -840 Descending Washington Center
07:19PM 36.0544 -77.5472 58° Northeast 423 487 21,000 -360 Descending Washington Center
07:20PM 36.1128 -77.4225 60° Northeast 411 473 21,000  Level Washington Center
07:21PM 36.1389 -77.3642 61° Northeast 416 479 21,000  Level Washington Center
07:21PM 36.1753 -77.2903 59° Northeast 404 465 21,000  Level Washington Center
07:22PM 36.2033 -77.2317 59° Northeast 420 483 21,000 -120 Level Washington Center
07:22PM 36.2356 -77.1628 60° Northeast 409 471 20,900 -1,020 Descending Washington Center
07:23PM 36.2611 -77.1092 59° Northeast 421 484 20,000 -1,980 Descending Washington Center
07:23PM 36.2933 -77.0403 60° Northeast 409 471 18,900 -2,160 Descending Washington Center
07:24PM 36.3189 -76.9867 59° Northeast 415 478 17,800 -2,460 Descending Washington Center
07:24PM 36.3489 -76.9175 62° Northeast 409 471 16,600 -2,340 Descending Washington Center
07:25PM 36.3789 -76.8689 53° Northeast 406 467 15,500 -2,340 Descending Washington Center
07:25PM 36.4211 -76.8103 48° Northeast 404 465 14,300 -2,580 Descending Washington Center
07:26PM 36.4611 -76.7619 44° Northeast 397 457 12,900 -2,400 Descending Washington Center
07:26PM 36.4972 -76.7133 47° Northeast 393 452 11,900 -1,560 Descending Washington Center
07:27PM 36.5392 -76.6700 40° Northeast 383 441 11,300 -1,020 Descending Washington Center
07:27PM 36.5731 -76.6264 46° Northeast 380 437 10,900 -540 Descending Washington Center
07:28PM 36.6108 -76.5856 41° Northeast 325 374 10,800 -720 Descending Washington Center
07:28PM 36.6425 -76.5497 42° Northeast 353 406 10,200 -1,380 Descending Washington Center
07:29PM 36.6783 -76.5139 39° Northeast 318 366 9,500 -1,320 Descending Washington Center
07:29PM 36.7078 -76.4806 42° Northeast 322 371 8,900 -1,380 Descending Washington Center
07:30PM 36.7456 -76.4447 37° Northeast 306 352 8,100 -1,380 Descending Washington Center
07:30PM 36.7769 -76.4192 33° Northeast 306 352 7,600 -1,380 Descending Washington Center
07:31PM 36.8169 -76.3883 32° Northeast 306 352 6,700 -1,500 Descending Washington Center
07:32PM 36.8881 -76.3344 31° Northeast 303 349 5,300 -900 Descending Washington Center
07:33PM 36.9553 -76.2806 33° Northeast 260 299 5,000 -240 Descending Washington Center
07:34PM 37.0139 -76.2344 32° Northeast 245 282 4,900 -120 Descending Washington Center